sensor_id;sensor_type;location;lat;lon;timestamp;temperature;humidity
3644;DHT22;1838;50.742;7.158;2023-03-26T00:01:16;12.00;99.90
3644;DHT22;1838;50.742;7.158;2023-03-26T00:03:43;12.00;99.90
3644;DHT22;1838;50.742;7.158;2023-03-26T00:06:19;12.00;99.90
3644;DHT22;1838;50.742;7.158;2023-03-26T00:08:45;11.90;99.90
3644;DHT22;1838;50.742;7.158;2023-03-26T00:11:13;11.90;99.90
3644;DHT22;1838;50.742;7.158;2023-03-26T00:13:39;11.90;99.90
3644;DHT22;1838;50.742;7.158;2023-03-26T00:16:11;11.90;99.90
3644;DHT22;1838;50.742;7.158;2023-03-26T00:18:39;11.90;99.90
3644;DHT22;1838;50.742;7.158;2023-03-26T00:21:05;12.00;99.90
3644;DHT22;1838;50.742;7.158;2023-03-26T00:23:33;12.00;99.90
3644;DHT22;1838;50.742;7.158;2023-03-26T00:26:00;12.00;99.90
3644;DHT22;1838;50.742;7.158;2023-03-26T00:28:28;12.00;99.90
3644;DHT22;1838;50.742;7.158;2023-03-26T00:30:59;12.00;99.90
3644;DHT22;1838;50.742;7.158;2023-03-26T00:33:26;12.00;99.90
3644;DHT22;1838;50.742;7.158;2023-03-26T00:35:53;12.00;99.90
3644;DHT22;1838;50.742;7.158;2023-03-26T00:38:21;12.00;99.90
3644;DHT22;1838;50.742;7.158;2023-03-26T00:40:47;12.00;99.90
3644;DHT22;1838;50.742;7.158;2023-03-26T00:43:16;11.90;99.90
3644;DHT22;1838;50.742;7.158;2023-03-26T00:48:11;11.90;99.90
3644;DHT22;1838;50.742;7.158;2023-03-26T00:50:37;11.90;99.90
3644;DHT22;1838;50.742;7.158;2023-03-26T00:53:03;11.80;99.90
3644;DHT22;1838;50.742;7.158;2023-03-26T00:55:28;11.60;99.90
3644;DHT22;1838;50.742;7.158;2023-03-26T00:57:54;11.60;99.90
3644;DHT22;1838;50.742;7.158;2023-03-26T01:00:27;11.70;99.90
3644;DHT22;1838;50.742;7.158;2023-03-26T01:02:53;11.60;99.90
3644;DHT22;1838;50.742;7.158;2023-03-26T01:08:24;11.50;99.90
3644;DHT22;1838;50.742;7.158;2023-03-26T01:10:52;11.40;99.90
3644;DHT22;1838;50.742;7.158;2023-03-26T01:13:29;11.30;99.90
3644;DHT22;1838;50.742;7.158;2023-03-26T01:15:55;11.20;99.90
3644;DHT22;1838;50.742;7.158;2023-03-26T01:18:22;11.10;99.90
3644;DHT22;1838;50.742;7.158;2023-03-26T01:20:53;11.00;99.90
3644;DHT22;1838;50.742;7.158;2023-03-26T01:23:25;10.90;99.90
3644;DHT22;1838;50.742;7.158;2023-03-26T01:26:05;10.80;99.90
3644;DHT22;1838;50.742;7.158;2023-03-26T01:28:34;10.70;99.90
3644;DHT22;1838;50.742;7.158;2023-03-26T01:31:31;10.50;99.90
3644;DHT22;1838;50.742;7.158;2023-03-26T01:34:18;10.40;99.90
3644;DHT22;1838;50.742;7.158;2023-03-26T01:36:56;10.30;99.90
3644;DHT22;1838;50.742;7.158;2023-03-26T01:39:36;10.30;99.90
3644;DHT22;1838;50.742;7.158;2023-03-26T01:42:10;10.20;99.90
3644;DHT22;1838;50.742;7.158;2023-03-26T01:44:47;10.20;99.90
3644;DHT22;1838;50.742;7.158;2023-03-26T01:47:16;10.10;99.90
3644;DHT22;1838;50.742;7.158;2023-03-26T01:49:42;10.00;99.90
3644;DHT22;1838;50.742;7.158;2023-03-26T01:52:18;10.00;99.90
3644;DHT22;1838;50.742;7.158;2023-03-26T01:54:44;10.00;99.90
3644;DHT22;1838;50.742;7.158;2023-03-26T02:00:14;9.90;99.90
3644;DHT22;1838;50.742;7.158;2023-03-26T02:05:48;9.90;99.90
3644;DHT22;1838;50.742;7.158;2023-03-26T02:08:29;9.90;99.90
3644;DHT22;1838;50.742;7.158;2023-03-26T02:11:02;9.90;99.90
3644;DHT22;1838;50.742;7.158;2023-03-26T02:13:30;10.00;99.90
3644;DHT22;1838;50.742;7.158;2023-03-26T02:16:02;10.00;99.90
3644;DHT22;1838;50.742;7.158;2023-03-26T02:18:28;10.00;99.90
3644;DHT22;1838;50.742;7.158;2023-03-26T02:21:17;10.10;99.90
3644;DHT22;1838;50.742;7.158;2023-03-26T02:23:45;10.00;99.90
3644;DHT22;1838;50.742;7.158;2023-03-26T02:26:13;9.90;99.90
3644;DHT22;1838;50.742;7.158;2023-03-26T02:28:39;9.90;99.90
3644;DHT22;1838;50.742;7.158;2023-03-26T02:31:05;9.80;99.90
3644;DHT22;1838;50.742;7.158;2023-03-26T02:33:36;9.80;99.90
3644;DHT22;1838;50.742;7.158;2023-03-26T02:36:03;9.90;99.90
3644;DHT22;1838;50.742;7.158;2023-03-26T02:38:30;9.80;99.90
3644;DHT22;1838;50.742;7.158;2023-03-26T02:41:00;9.90;99.90
3644;DHT22;1838;50.742;7.158;2023-03-26T02:43:26;9.90;99.90
3644;DHT22;1838;50.742;7.158;2023-03-26T02:45:51;9.90;99.90
3644;DHT22;1838;50.742;7.158;2023-03-26T02:48:17;9.90;99.90
3644;DHT22;1838;50.742;7.158;2023-03-26T02:50:43;9.90;99.90
3644;DHT22;1838;50.742;7.158;2023-03-26T02:53:09;9.90;99.90
3644;DHT22;1838;50.742;7.158;2023-03-26T02:55:36;9.90;99.90
3644;DHT22;1838;50.742;7.158;2023-03-26T02:58:02;9.90;99.90
3644;DHT22;1838;50.742;7.158;2023-03-26T03:00:27;9.90;99.90
3644;DHT22;1838;50.742;7.158;2023-03-26T03:02:53;9.80;99.90
3644;DHT22;1838;50.742;7.158;2023-03-26T03:05:22;9.80;99.90
3644;DHT22;1838;50.742;7.158;2023-03-26T03:07:51;9.90;99.90
3644;DHT22;1838;50.742;7.158;2023-03-26T03:10:16;9.80;99.90
3644;DHT22;1838;50.742;7.158;2023-03-26T03:12:46;9.80;99.90
3644;DHT22;1838;50.742;7.158;2023-03-26T03:15:12;9.80;99.90
3644;DHT22;1838;50.742;7.158;2023-03-26T03:17:38;9.70;99.90
3644;DHT22;1838;50.742;7.158;2023-03-26T03:20:05;9.70;99.90
3644;DHT22;1838;50.742;7.158;2023-03-26T03:22:34;9.70;99.90
3644;DHT22;1838;50.742;7.158;2023-03-26T03:24:59;9.70;99.90
3644;DHT22;1838;50.742;7.158;2023-03-26T03:27:25;9.80;99.90
3644;DHT22;1838;50.742;7.158;2023-03-26T03:29:52;9.80;99.90
3644;DHT22;1838;50.742;7.158;2023-03-26T03:32:21;9.70;99.90
3644;DHT22;1838;50.742;7.158;2023-03-26T03:34:48;9.80;99.90
3644;DHT22;1838;50.742;7.158;2023-03-26T03:37:15;9.80;99.90
3644;DHT22;1838;50.742;7.158;2023-03-26T03:39:41;9.80;99.90
3644;DHT22;1838;50.742;7.158;2023-03-26T03:42:06;9.80;99.90
3644;DHT22;1838;50.742;7.158;2023-03-26T03:44:32;9.80;99.90
3644;DHT22;1838;50.742;7.158;2023-03-26T03:46:57;9.80;99.90
3644;DHT22;1838;50.742;7.158;2023-03-26T03:49:23;9.80;99.90
3644;DHT22;1838;50.742;7.158;2023-03-26T03:51:49;9.80;99.90
3644;DHT22;1838;50.742;7.158;2023-03-26T03:54:14;9.80;99.90
3644;DHT22;1838;50.742;7.158;2023-03-26T03:56:40;9.80;99.90
3644;DHT22;1838;50.742;7.158;2023-03-26T03:59:05;9.80;99.90
3644;DHT22;1838;50.742;7.158;2023-03-26T04:01:33;9.80;99.90
3644;DHT22;1838;50.742;7.158;2023-03-26T04:03:59;9.80;99.90
3644;DHT22;1838;50.742;7.158;2023-03-26T04:06:24;9.80;99.90
3644;DHT22;1838;50.742;7.158;2023-03-26T04:08:54;9.70;99.90
3644;DHT22;1838;50.742;7.158;2023-03-26T04:11:21;9.60;99.90
3644;DHT22;1838;50.742;7.158;2023-03-26T04:13:47;9.60;99.90
3644;DHT22;1838;50.742;7.158;2023-03-26T04:16:13;9.60;99.90
3644;DHT22;1838;50.742;7.158;2023-03-26T04:18:38;9.50;99.90
3644;DHT22;1838;50.742;7.158;2023-03-26T04:21:05;9.50;99.90
3644;DHT22;1838;50.742;7.158;2023-03-26T04:23:32;9.40;99.90
3644;DHT22;1838;50.742;7.158;2023-03-26T04:26:01;9.50;99.90
3644;DHT22;1838;50.742;7.158;2023-03-26T04:28:32;9.40;99.90
3644;DHT22;1838;50.742;7.158;2023-03-26T04:31:00;9.40;99.90
3644;DHT22;1838;50.742;7.158;2023-03-26T04:33:33;9.50;99.90
3644;DHT22;1838;50.742;7.158;2023-03-26T04:35:59;9.50;99.90
3644;DHT22;1838;50.742;7.158;2023-03-26T04:38:30;9.50;99.90
3644;DHT22;1838;50.742;7.158;2023-03-26T04:40:58;9.50;99.90
3644;DHT22;1838;50.742;7.158;2023-03-26T04:43:24;9.50;99.90
3644;DHT22;1838;50.742;7.158;2023-03-26T04:45:51;9.50;99.90
3644;DHT22;1838;50.742;7.158;2023-03-26T04:48:17;9.40;99.90
3644;DHT22;1838;50.742;7.158;2023-03-26T04:50:44;9.40;99.90
3644;DHT22;1838;50.742;7.158;2023-03-26T04:53:15;9.40;99.90
3644;DHT22;1838;50.742;7.158;2023-03-26T04:56:05;9.40;99.90
3644;DHT22;1838;50.742;7.158;2023-03-26T04:58:30;9.30;99.90
3644;DHT22;1838;50.742;7.158;2023-03-26T05:00:59;9.40;99.90
3644;DHT22;1838;50.742;7.158;2023-03-26T05:03:26;9.40;99.90
3644;DHT22;1838;50.742;7.158;2023-03-26T05:06:00;9.40;99.90
3644;DHT22;1838;50.742;7.158;2023-03-26T05:08:26;9.40;99.90
3644;DHT22;1838;50.742;7.158;2023-03-26T05:10:54;9.30;99.90
3644;DHT22;1838;50.742;7.158;2023-03-26T05:13:21;9.30;99.90
3644;DHT22;1838;50.742;7.158;2023-03-26T05:15:47;9.30;99.90
3644;DHT22;1838;50.742;7.158;2023-03-26T05:18:13;9.30;99.90
3644;DHT22;1838;50.742;7.158;2023-03-26T05:20:39;9.30;99.90
3644;DHT22;1838;50.742;7.158;2023-03-26T05:23:04;9.30;99.90
3644;DHT22;1838;50.742;7.158;2023-03-26T05:25:30;9.20;99.90
3644;DHT22;1838;50.742;7.158;2023-03-26T05:27:56;9.20;99.90
3644;DHT22;1838;50.742;7.158;2023-03-26T05:30:21;9.20;99.90
3644;DHT22;1838;50.742;7.158;2023-03-26T05:32:47;9.20;99.90
3644;DHT22;1838;50.742;7.158;2023-03-26T05:35:14;9.20;99.90
3644;DHT22;1838;50.742;7.158;2023-03-26T05:37:41;9.30;99.90
3644;DHT22;1838;50.742;7.158;2023-03-26T05:40:08;9.30;99.90
3644;DHT22;1838;50.742;7.158;2023-03-26T05:42:37;9.30;99.90
3644;DHT22;1838;50.742;7.158;2023-03-26T05:45:03;9.40;99.90
3644;DHT22;1838;50.742;7.158;2023-03-26T05:47:29;9.40;99.90
3644;DHT22;1838;50.742;7.158;2023-03-26T05:49:54;9.40;99.90
3644;DHT22;1838;50.742;7.158;2023-03-26T05:52:20;9.30;99.90
3644;DHT22;1838;50.742;7.158;2023-03-26T05:54:45;9.40;99.90
3644;DHT22;1838;50.742;7.158;2023-03-26T05:57:11;9.40;99.90
3644;DHT22;1838;50.742;7.158;2023-03-26T05:59:37;9.40;99.90
3644;DHT22;1838;50.742;7.158;2023-03-26T06:02:03;9.40;99.90
3644;DHT22;1838;50.742;7.158;2023-03-26T06:04:28;9.40;99.90
3644;DHT22;1838;50.742;7.158;2023-03-26T06:06:56;9.40;99.90
3644;DHT22;1838;50.742;7.158;2023-03-26T06:09:21;9.40;99.90
3644;DHT22;1838;50.742;7.158;2023-03-26T06:11:48;9.40;99.90
3644;DHT22;1838;50.742;7.158;2023-03-26T06:14:14;9.40;99.90
3644;DHT22;1838;50.742;7.158;2023-03-26T06:16:40;9.50;99.90
3644;DHT22;1838;50.742;7.158;2023-03-26T06:19:05;9.50;99.90
3644;DHT22;1838;50.742;7.158;2023-03-26T06:21:31;9.50;99.90
3644;DHT22;1838;50.742;7.158;2023-03-26T06:23:56;9.50;99.90
3644;DHT22;1838;50.742;7.158;2023-03-26T06:26:22;9.60;99.90
3644;DHT22;1838;50.742;7.158;2023-03-26T06:28:48;9.60;99.90
3644;DHT22;1838;50.742;7.158;2023-03-26T06:31:14;9.50;99.90
3644;DHT22;1838;50.742;7.158;2023-03-26T06:33:41;9.50;99.90
3644;DHT22;1838;50.742;7.158;2023-03-26T06:36:07;9.50;99.90
3644;DHT22;1838;50.742;7.158;2023-03-26T06:38:32;9.40;99.90
3644;DHT22;1838;50.742;7.158;2023-03-26T06:41:05;9.40;99.90
3644;DHT22;1838;50.742;7.158;2023-03-26T06:43:31;9.30;99.90
3644;DHT22;1838;50.742;7.158;2023-03-26T06:46:01;9.30;99.90
3644;DHT22;1838;50.742;7.158;2023-03-26T06:48:27;9.30;99.90
3644;DHT22;1838;50.742;7.158;2023-03-26T06:50:53;9.30;99.90
3644;DHT22;1838;50.742;7.158;2023-03-26T06:53:19;9.30;99.90
3644;DHT22;1838;50.742;7.158;2023-03-26T06:55:44;9.30;99.90
3644;DHT22;1838;50.742;7.158;2023-03-26T06:58:11;9.40;99.90
3644;DHT22;1838;50.742;7.158;2023-03-26T07:00:37;9.30;99.90
3644;DHT22;1838;50.742;7.158;2023-03-26T07:03:04;9.40;99.90
3644;DHT22;1838;50.742;7.158;2023-03-26T07:05:29;9.40;99.90
3644;DHT22;1838;50.742;7.158;2023-03-26T07:07:55;9.40;99.90
3644;DHT22;1838;50.742;7.158;2023-03-26T07:10:21;9.40;99.90
3644;DHT22;1838;50.742;7.158;2023-03-26T07:12:46;9.40;99.90
3644;DHT22;1838;50.742;7.158;2023-03-26T07:15:12;9.30;99.90
3644;DHT22;1838;50.742;7.158;2023-03-26T07:17:38;9.30;99.90
3644;DHT22;1838;50.742;7.158;2023-03-26T07:20:05;9.30;99.90
3644;DHT22;1838;50.742;7.158;2023-03-26T07:22:32;9.30;99.90
3644;DHT22;1838;50.742;7.158;2023-03-26T07:25:01;9.30;99.90
3644;DHT22;1838;50.742;7.158;2023-03-26T07:27:52;9.30;99.90
3644;DHT22;1838;50.742;7.158;2023-03-26T07:33:15;9.30;99.90
3644;DHT22;1838;50.742;7.158;2023-03-26T07:35:54;9.30;99.90
3644;DHT22;1838;50.742;7.158;2023-03-26T07:41:06;9.20;99.90
3644;DHT22;1838;50.742;7.158;2023-03-26T07:43:45;9.30;99.90
3644;DHT22;1838;50.742;7.158;2023-03-26T07:46:16;9.20;99.90
3644;DHT22;1838;50.742;7.158;2023-03-26T07:48:44;9.20;99.90
3644;DHT22;1838;50.742;7.158;2023-03-26T07:51:13;9.30;99.90
3644;DHT22;1838;50.742;7.158;2023-03-26T07:53:39;9.30;99.90
3644;DHT22;1838;50.742;7.158;2023-03-26T07:56:14;9.20;99.90
3644;DHT22;1838;50.742;7.158;2023-03-26T07:59:05;9.20;99.90
3644;DHT22;1838;50.742;7.158;2023-03-26T08:15:44;9.10;99.90
3644;DHT22;1838;50.742;7.158;2023-03-26T08:21:25;9.20;99.90
3644;DHT22;1838;50.742;7.158;2023-03-26T08:24:04;9.10;99.90
3644;DHT22;1838;50.742;7.158;2023-03-26T08:27:07;9.20;99.90
3644;DHT22;1838;50.742;7.158;2023-03-26T08:32:14;9.10;99.90
3644;DHT22;1838;50.742;7.158;2023-03-26T08:34:40;9.10;99.90
3644;DHT22;1838;50.742;7.158;2023-03-26T08:37:06;9.20;99.90
3644;DHT22;1838;50.742;7.158;2023-03-26T08:39:32;9.10;99.90
3644;DHT22;1838;50.742;7.158;2023-03-26T08:50:13;9.00;99.90
3644;DHT22;1838;50.742;7.158;2023-03-26T08:53:11;9.00;99.90
3644;DHT22;1838;50.742;7.158;2023-03-26T09:00:58;9.00;99.90
3644;DHT22;1838;50.742;7.158;2023-03-26T09:07:00;8.90;99.90
3644;DHT22;1838;50.742;7.158;2023-03-26T09:09:54;8.90;99.90
3644;DHT22;1838;50.742;7.158;2023-03-26T09:12:43;8.80;99.90
3644;DHT22;1838;50.742;7.158;2023-03-26T09:15:24;8.70;99.90
3644;DHT22;1838;50.742;7.158;2023-03-26T09:18:22;8.60;99.90
3644;DHT22;1838;50.742;7.158;2023-03-26T09:23:49;8.50;99.90
3644;DHT22;1838;50.742;7.158;2023-03-26T09:35:12;8.60;99.90
3644;DHT22;1838;50.742;7.158;2023-03-26T09:38:00;8.70;99.90
3644;DHT22;1838;50.742;7.158;2023-03-26T09:40:37;8.70;99.90
3644;DHT22;1838;50.742;7.158;2023-03-26T09:46:16;8.80;99.90
3644;DHT22;1838;50.742;7.158;2023-03-26T09:54:36;9.10;99.90
3644;DHT22;1838;50.742;7.158;2023-03-26T10:00:17;9.30;99.90
3644;DHT22;1838;50.742;7.158;2023-03-26T10:02:53;9.50;99.90
3644;DHT22;1838;50.742;7.158;2023-03-26T10:05:34;9.60;99.90
3644;DHT22;1838;50.742;7.158;2023-03-26T10:16:58;9.80;99.90
3644;DHT22;1838;50.742;7.158;2023-03-26T10:28:35;10.10;99.90
3644;DHT22;1838;50.742;7.158;2023-03-26T10:31:23;10.20;99.90
3644;DHT22;1838;50.742;7.158;2023-03-26T10:37:30;10.30;99.90
3644;DHT22;1838;50.742;7.158;2023-03-26T10:40:34;10.30;99.90
3644;DHT22;1838;50.742;7.158;2023-03-26T10:54:13;10.30;99.90
3644;DHT22;1838;50.742;7.158;2023-03-26T10:56:44;10.20;99.90
3644;DHT22;1838;50.742;7.158;2023-03-26T10:59:12;10.30;99.90
3644;DHT22;1838;50.742;7.158;2023-03-26T11:01:45;10.30;99.90
3644;DHT22;1838;50.742;7.158;2023-03-26T11:07:20;10.30;99.90
3644;DHT22;1838;50.742;7.158;2023-03-26T11:09:57;10.30;99.90
3644;DHT22;1838;50.742;7.158;2023-03-26T11:12:50;10.40;99.90
3644;DHT22;1838;50.742;7.158;2023-03-26T11:15:32;10.50;99.90
3644;DHT22;1838;50.742;7.158;2023-03-26T11:18:15;10.50;99.90
3644;DHT22;1838;50.742;7.158;2023-03-26T11:21:00;10.60;99.90
3644;DHT22;1838;50.742;7.158;2023-03-26T11:23:53;10.60;99.90
3644;DHT22;1838;50.742;7.158;2023-03-26T11:32:06;10.90;99.90
3644;DHT22;1838;50.742;7.158;2023-03-26T11:34:39;11.00;99.90
3644;DHT22;1838;50.742;7.158;2023-03-26T11:37:14;11.20;99.90
3644;DHT22;1838;50.742;7.158;2023-03-26T11:39:53;11.40;99.90
3644;DHT22;1838;50.742;7.158;2023-03-26T11:42:22;11.20;99.90
3644;DHT22;1838;50.742;7.158;2023-03-26T11:45:15;11.00;99.90
3644;DHT22;1838;50.742;7.158;2023-03-26T11:48:07;11.00;99.90
3644;DHT22;1838;50.742;7.158;2023-03-26T11:50:39;10.90;99.90
3644;DHT22;1838;50.742;7.158;2023-03-26T11:53:17;10.70;99.90
3644;DHT22;1838;50.742;7.158;2023-03-26T11:55:52;10.80;99.90
3644;DHT22;1838;50.742;7.158;2023-03-26T12:01:16;10.80;99.90
3644;DHT22;1838;50.742;7.158;2023-03-26T12:03:42;10.90;99.90
3644;DHT22;1838;50.742;7.158;2023-03-26T12:06:22;10.90;99.90
3644;DHT22;1838;50.742;7.158;2023-03-26T12:08:50;10.90;99.90
3644;DHT22;1838;50.742;7.158;2023-03-26T12:11:17;10.90;99.90
3644;DHT22;1838;50.742;7.158;2023-03-26T12:14:00;10.90;99.90
3644;DHT22;1838;50.742;7.158;2023-03-26T12:16:27;11.00;99.90
3644;DHT22;1838;50.742;7.158;2023-03-26T12:19:19;10.90;99.90
3644;DHT22;1838;50.742;7.158;2023-03-26T12:21:47;10.90;99.90
3644;DHT22;1838;50.742;7.158;2023-03-26T12:29:57;11.00;99.90
3644;DHT22;1838;50.742;7.158;2023-03-26T12:32:24;11.10;99.90
3644;DHT22;1838;50.742;7.158;2023-03-26T12:34:56;11.00;99.90
3644;DHT22;1838;50.742;7.158;2023-03-26T12:37:51;11.00;99.90
3644;DHT22;1838;50.742;7.158;2023-03-26T12:40:32;10.80;99.90
3644;DHT22;1838;50.742;7.158;2023-03-26T12:45:49;10.90;99.90
3644;DHT22;1838;50.742;7.158;2023-03-26T12:48:17;11.10;99.90
3644;DHT22;1838;50.742;7.158;2023-03-26T13:05:03;11.60;99.90
3644;DHT22;1838;50.742;7.158;2023-03-26T13:13:41;11.90;99.90
3644;DHT22;1838;50.742;7.158;2023-03-26T13:16:28;11.90;99.90
3644;DHT22;1838;50.742;7.158;2023-03-26T13:19:09;12.00;99.90
3644;DHT22;1838;50.742;7.158;2023-03-26T13:24:57;12.20;99.90
3644;DHT22;1838;50.742;7.158;2023-03-26T13:33:42;12.50;99.90
3644;DHT22;1838;50.742;7.158;2023-03-26T13:39:22;12.70;99.90
3644;DHT22;1838;50.742;7.158;2023-03-26T13:42:08;12.80;99.90
3644;DHT22;1838;50.742;7.158;2023-03-26T13:44:57;12.90;99.90
3644;DHT22;1838;50.742;7.158;2023-03-26T13:47:27;12.90;99.90
3644;DHT22;1838;50.742;7.158;2023-03-26T13:50:05;12.80;99.90
3644;DHT22;1838;50.742;7.158;2023-03-26T13:52:58;12.90;99.90
3644;DHT22;1838;50.742;7.158;2023-03-26T14:01:08;12.50;99.90
3644;DHT22;1838;50.742;7.158;2023-03-26T14:03:57;12.30;99.90
3644;DHT22;1838;50.742;7.158;2023-03-26T14:06:58;12.20;99.90
3644;DHT22;1838;50.742;7.158;2023-03-26T14:09:38;12.10;99.90
3644;DHT22;1838;50.742;7.158;2023-03-26T14:12:23;12.00;99.90
3644;DHT22;1838;50.742;7.158;2023-03-26T14:15:36;12.10;99.90
3644;DHT22;1838;50.742;7.158;2023-03-26T14:27:36;12.30;99.90
3644;DHT22;1838;50.742;7.158;2023-03-26T14:30:27;12.30;99.90
3644;DHT22;1838;50.742;7.158;2023-03-26T14:33:33;12.20;99.90
3644;DHT22;1838;50.742;7.158;2023-03-26T14:39:09;12.10;99.90
3644;DHT22;1838;50.742;7.158;2023-03-26T14:41:51;12.20;99.90
3644;DHT22;1838;50.742;7.158;2023-03-26T14:44:55;12.10;99.90
3644;DHT22;1838;50.742;7.158;2023-03-26T14:47:25;12.20;99.90
3644;DHT22;1838;50.742;7.158;2023-03-26T14:52:50;12.20;99.90
3644;DHT22;1838;50.742;7.158;2023-03-26T14:58:02;12.20;99.90
3644;DHT22;1838;50.742;7.158;2023-03-26T15:07:03;12.20;99.90
3644;DHT22;1838;50.742;7.158;2023-03-26T15:15:37;12.00;99.90
3644;DHT22;1838;50.742;7.158;2023-03-26T15:18:25;11.90;99.90
3644;DHT22;1838;50.742;7.158;2023-03-26T15:21:35;11.90;99.90
3644;DHT22;1838;50.742;7.158;2023-03-26T15:27:11;11.80;99.90
3644;DHT22;1838;50.742;7.158;2023-03-26T15:29:59;11.80;99.90
3644;DHT22;1838;50.742;7.158;2023-03-26T15:36:41;11.80;99.90
3644;DHT22;1838;50.742;7.158;2023-03-26T15:41:25;11.60;99.90
3644;DHT22;1838;50.742;7.158;2023-03-26T15:44:01;11.60;99.90
3644;DHT22;1838;50.742;7.158;2023-03-26T15:46:55;11.60;99.90
3644;DHT22;1838;50.742;7.158;2023-03-26T15:49:44;11.80;99.90
3644;DHT22;1838;50.742;7.158;2023-03-26T15:52:35;11.90;99.90
3644;DHT22;1838;50.742;7.158;2023-03-26T16:00:26;11.60;99.90
3644;DHT22;1838;50.742;7.158;2023-03-26T16:05:52;11.40;99.90
3644;DHT22;1838;50.742;7.158;2023-03-26T16:11:11;11.20;99.90
3644;DHT22;1838;50.742;7.158;2023-03-26T16:13:42;11.00;99.90
3644;DHT22;1838;50.742;7.158;2023-03-26T16:18:56;10.90;99.90
3644;DHT22;1838;50.742;7.158;2023-03-26T16:32:02;10.60;99.90
3644;DHT22;1838;50.742;7.158;2023-03-26T16:34:50;10.50;99.90
3644;DHT22;1838;50.742;7.158;2023-03-26T16:48:47;10.20;99.90
3644;DHT22;1838;50.742;7.158;2023-03-26T16:54:56;10.10;99.90
3644;DHT22;1838;50.742;7.158;2023-03-26T16:57:27;10.10;99.90
3644;DHT22;1838;50.742;7.158;2023-03-26T17:03:03;9.90;99.90
3644;DHT22;1838;50.742;7.158;2023-03-26T17:08:25;9.90;99.90
3644;DHT22;1838;50.742;7.158;2023-03-26T17:11:18;9.90;99.90
3644;DHT22;1838;50.742;7.158;2023-03-26T17:13:51;9.90;99.90
3644;DHT22;1838;50.742;7.158;2023-03-26T17:17:11;9.80;99.90
3644;DHT22;1838;50.742;7.158;2023-03-26T17:21:56;9.70;99.90
3644;DHT22;1838;50.742;7.158;2023-03-26T17:27:31;9.80;99.90
3644;DHT22;1838;50.742;7.158;2023-03-26T17:32:55;9.70;99.90
3644;DHT22;1838;50.742;7.158;2023-03-26T17:35:42;9.70;99.90
3644;DHT22;1838;50.742;7.158;2023-03-26T17:40:56;9.70;99.90
3644;DHT22;1838;50.742;7.158;2023-03-26T17:43:45;9.70;99.90
3644;DHT22;1838;50.742;7.158;2023-03-26T17:46:32;9.70;99.90
3644;DHT22;1838;50.742;7.158;2023-03-26T17:57:03;9.50;99.90
3644;DHT22;1838;50.742;7.158;2023-03-26T17:59:30;9.40;99.90
3644;DHT22;1838;50.742;7.158;2023-03-26T18:01:59;9.40;99.90
3644;DHT22;1838;50.742;7.158;2023-03-26T18:04:35;9.30;99.90
3644;DHT22;1838;50.742;7.158;2023-03-26T18:07:27;9.30;99.90
3644;DHT22;1838;50.742;7.158;2023-03-26T18:13:12;9.20;99.90
3644;DHT22;1838;50.742;7.158;2023-03-26T18:20:59;9.20;99.90
3644;DHT22;1838;50.742;7.158;2023-03-26T18:23:39;9.20;99.90
3644;DHT22;1838;50.742;7.158;2023-03-26T18:31:30;9.10;99.90
3644;DHT22;1838;50.742;7.158;2023-03-26T18:34:05;9.10;99.90
3644;DHT22;1838;50.742;7.158;2023-03-26T18:36:35;9.10;99.90
3644;DHT22;1838;50.742;7.158;2023-03-26T18:39:03;9.00;99.90
3644;DHT22;1838;50.742;7.158;2023-03-26T18:41:35;9.00;99.90
3644;DHT22;1838;50.742;7.158;2023-03-26T18:44:13;8.90;99.90
3644;DHT22;1838;50.742;7.158;2023-03-26T18:46:40;8.90;99.90
3644;DHT22;1838;50.742;7.158;2023-03-26T18:49:06;8.90;99.90
3644;DHT22;1838;50.742;7.158;2023-03-26T18:51:33;9.00;99.90
3644;DHT22;1838;50.742;7.158;2023-03-26T18:54:02;8.90;99.90
3644;DHT22;1838;50.742;7.158;2023-03-26T18:56:41;8.90;99.90
3644;DHT22;1838;50.742;7.158;2023-03-26T18:59:28;8.90;99.90
3644;DHT22;1838;50.742;7.158;2023-03-26T19:02:09;8.90;99.90
3644;DHT22;1838;50.742;7.158;2023-03-26T19:04:35;8.80;99.90
3644;DHT22;1838;50.742;7.158;2023-03-26T19:07:03;8.80;99.90
3644;DHT22;1838;50.742;7.158;2023-03-26T19:09:31;8.70;99.90
3644;DHT22;1838;50.742;7.158;2023-03-26T19:15:03;8.60;99.90
3644;DHT22;1838;50.742;7.158;2023-03-26T19:17:35;8.50;99.90
3644;DHT22;1838;50.742;7.158;2023-03-26T19:20:02;8.60;99.90
3644;DHT22;1838;50.742;7.158;2023-03-26T19:22:32;8.60;99.90
3644;DHT22;1838;50.742;7.158;2023-03-26T19:25:00;8.50;99.90
3644;DHT22;1838;50.742;7.158;2023-03-26T19:27:26;8.50;99.90
3644;DHT22;1838;50.742;7.158;2023-03-26T19:29:52;8.50;99.90
3644;DHT22;1838;50.742;7.158;2023-03-26T19:32:20;8.50;99.90
3644;DHT22;1838;50.742;7.158;2023-03-26T19:34:52;8.50;99.90
3644;DHT22;1838;50.742;7.158;2023-03-26T19:37:22;8.60;99.90
3644;DHT22;1838;50.742;7.158;2023-03-26T19:39:51;8.60;99.90
3644;DHT22;1838;50.742;7.158;2023-03-26T19:42:22;8.60;99.90
3644;DHT22;1838;50.742;7.158;2023-03-26T19:44:49;8.60;99.90
3644;DHT22;1838;50.742;7.158;2023-03-26T19:47:24;8.60;99.90
3644;DHT22;1838;50.742;7.158;2023-03-26T19:49:57;8.70;99.90
3644;DHT22;1838;50.742;7.158;2023-03-26T19:52:27;8.70;99.90
3644;DHT22;1838;50.742;7.158;2023-03-26T19:57:36;8.60;99.90
3644;DHT22;1838;50.742;7.158;2023-03-26T20:00:06;8.60;99.90
3644;DHT22;1838;50.742;7.158;2023-03-26T20:02:41;8.50;99.90
3644;DHT22;1838;50.742;7.158;2023-03-26T20:05:18;8.40;99.90
3644;DHT22;1838;50.742;7.158;2023-03-26T20:07:47;8.30;99.90
3644;DHT22;1838;50.742;7.158;2023-03-26T20:10:14;8.20;99.90
3644;DHT22;1838;50.742;7.158;2023-03-26T20:12:40;8.20;99.90
3644;DHT22;1838;50.742;7.158;2023-03-26T20:15:23;8.10;99.90
3644;DHT22;1838;50.742;7.158;2023-03-26T20:17:49;8.10;99.90
3644;DHT22;1838;50.742;7.158;2023-03-26T20:20:19;8.00;99.90
3644;DHT22;1838;50.742;7.158;2023-03-26T20:22:45;8.00;99.90
3644;DHT22;1838;50.742;7.158;2023-03-26T20:25:27;8.00;99.90
3644;DHT22;1838;50.742;7.158;2023-03-26T20:27:54;7.90;99.90
3644;DHT22;1838;50.742;7.158;2023-03-26T20:30:21;7.90;99.90
3644;DHT22;1838;50.742;7.158;2023-03-26T20:32:48;7.90;99.90
3644;DHT22;1838;50.742;7.158;2023-03-26T20:35:23;7.90;99.90
3644;DHT22;1838;50.742;7.158;2023-03-26T20:37:49;7.80;99.90
3644;DHT22;1838;50.742;7.158;2023-03-26T20:40:15;7.90;99.90
3644;DHT22;1838;50.742;7.158;2023-03-26T20:42:42;7.90;99.90
3644;DHT22;1838;50.742;7.158;2023-03-26T20:45:14;7.90;99.90
3644;DHT22;1838;50.742;7.158;2023-03-26T20:47:45;7.90;99.90
3644;DHT22;1838;50.742;7.158;2023-03-26T20:50:14;7.90;99.90
3644;DHT22;1838;50.742;7.158;2023-03-26T20:52:41;8.00;99.90
3644;DHT22;1838;50.742;7.158;2023-03-26T20:55:16;7.90;99.90
3644;DHT22;1838;50.742;7.158;2023-03-26T20:57:42;7.80;99.90
3644;DHT22;1838;50.742;7.158;2023-03-26T21:00:11;7.90;99.90
3644;DHT22;1838;50.742;7.158;2023-03-26T21:02:45;7.90;99.90
3644;DHT22;1838;50.742;7.158;2023-03-26T21:05:12;7.90;99.90
3644;DHT22;1838;50.742;7.158;2023-03-26T21:07:44;7.90;99.90
3644;DHT22;1838;50.742;7.158;2023-03-26T21:10:11;7.90;99.90
3644;DHT22;1838;50.742;7.158;2023-03-26T21:12:43;7.90;99.90
3644;DHT22;1838;50.742;7.158;2023-03-26T21:15:12;7.90;99.90
3644;DHT22;1838;50.742;7.158;2023-03-26T21:17:37;7.90;99.90
3644;DHT22;1838;50.742;7.158;2023-03-26T21:20:03;7.80;99.90
3644;DHT22;1838;50.742;7.158;2023-03-26T21:25:37;7.70;99.90
3644;DHT22;1838;50.742;7.158;2023-03-26T21:30:31;7.70;99.90
3644;DHT22;1838;50.742;7.158;2023-03-26T21:32:57;7.70;99.90
3644;DHT22;1838;50.742;7.158;2023-03-26T21:35:24;7.70;99.90
3644;DHT22;1838;50.742;7.158;2023-03-26T21:37:50;7.70;99.90
3644;DHT22;1838;50.742;7.158;2023-03-26T21:40:17;7.60;99.90
3644;DHT22;1838;50.742;7.158;2023-03-26T21:42:45;7.60;99.90